高雄國際航空站 - 塔台/地面席

METAR RCKH 210200Z VRB01KT 5000 HZ FEW010 BKN060 BKN080 24/14 Q1015 NOSIG RMK A2998=

站台狀態:Offline
最後更新:2021-01-21 10:00:02